Plummer, Indiana
Current Conditions -  °F | °C
As of 3:53 PM on Wednesday 17 Dec 2014 (Local Time) from KBMG Reporting Station
Overcast Overcast  
Wind Chill: 19°   Ceiling: 1400
Heat Index: 27°   Visibility: 10mi
Dew Point: 21°   Wind: 7mph
Humidity: 78%   Direction: 260°W
Pressure: 30.25"   Gusts: NA
Location:  39.0306°N, 86.8553°W
Report Text: KBMG 172053Z 26006KT 10SM OVC014 M03/M06 A3025 RMK AO2 SLP253 T10281061 55001
Loading
Personal Weather Stations






























Interactive Weather Map New forecast layout! Learn more

10-Day Weather Forecast

Advertisements
Track Severe Weather on mobile